createdAt,value
2018-08-18T00:02:27.067Z,21.60
2018-08-18T00:04:55.544Z,21.60
2018-08-18T00:07:26.105Z,21.50
2018-08-18T00:09:54.678Z,21.50
2018-08-18T00:12:28.866Z,21.50
2018-08-18T00:14:57.199Z,21.50
2018-08-18T00:17:28.408Z,21.50
2018-08-18T00:19:56.609Z,21.50
2018-08-18T00:22:24.984Z,21.40
2018-08-18T00:24:57.228Z,21.40
2018-08-18T00:27:25.614Z,21.20
2018-08-18T00:29:58.526Z,21.20
2018-08-18T00:32:27.141Z,21.20
2018-08-18T00:34:56.308Z,21.30
2018-08-18T00:37:25.486Z,21.10
2018-08-18T00:39:54.813Z,21.20
2018-08-18T00:42:23.115Z,21.20
2018-08-18T00:44:51.369Z,21.20
2018-08-18T00:47:21.299Z,21.10
2018-08-18T00:49:49.839Z,21.20
2018-08-18T00:52:18.224Z,21.10
2018-08-18T00:54:46.647Z,21.20
2018-08-18T00:57:25.885Z,21.20
2018-08-18T00:59:55.557Z,21.30
2018-08-18T01:02:24.171Z,21.20
2018-08-18T01:04:58.408Z,21.10
2018-08-18T01:07:28.276Z,21.10
2018-08-18T01:09:57.277Z,21.10
2018-08-18T01:12:26.341Z,21.00
2018-08-18T01:14:55.438Z,21.00
2018-08-18T01:17:24.336Z,21.10
2018-08-18T01:19:53.400Z,21.00
2018-08-18T01:22:21.964Z,21.00
2018-08-18T01:24:51.115Z,21.10
2018-08-18T01:27:21.039Z,21.10
2018-08-18T01:29:55.434Z,21.00
2018-08-18T01:32:23.949Z,21.20
2018-08-18T01:34:53.535Z,21.40
2018-08-18T01:37:22.292Z,21.40
2018-08-18T01:39:54.367Z,21.40
2018-08-18T01:42:23.348Z,21.30
2018-08-18T01:44:53.306Z,21.20
2018-08-18T01:47:21.979Z,21.20
2018-08-18T01:49:50.195Z,21.20
2018-08-18T01:52:22.511Z,21.10
2018-08-18T01:54:51.341Z,21.10
2018-08-18T01:57:20.536Z,21.10
2018-08-18T01:59:50.273Z,21.10
2018-08-18T02:02:21.723Z,21.10
2018-08-18T02:04:50.502Z,21.10
2018-08-18T02:07:28.331Z,21.00
2018-08-18T02:09:57.060Z,21.00
2018-08-18T02:12:25.927Z,20.90
2018-08-18T02:14:55.094Z,20.80
2018-08-18T02:17:26.438Z,21.00
2018-08-18T02:19:55.608Z,21.00
2018-08-18T02:22:25.042Z,20.90
2018-08-18T02:24:53.694Z,21.00
2018-08-18T02:27:21.781Z,21.00
2018-08-18T02:30:02.314Z,21.00
2018-08-18T02:32:32.028Z,21.00
2018-08-18T02:35:00.567Z,21.00
2018-08-18T02:37:29.552Z,20.90
2018-08-18T02:39:58.181Z,20.90
2018-08-18T02:42:26.700Z,20.80
2018-08-18T02:44:55.147Z,20.70
2018-08-18T02:47:23.924Z,20.60
2018-08-18T02:49:53.663Z,20.50
2018-08-18T02:52:24.527Z,20.70
2018-08-18T02:54:55.334Z,20.80
2018-08-18T02:57:27.971Z,20.70
2018-08-18T02:59:58.454Z,20.50
2018-08-18T03:02:27.198Z,20.40
2018-08-18T03:04:55.326Z,20.30
2018-08-18T03:07:24.406Z,20.30
2018-08-18T03:09:52.609Z,20.30
2018-08-18T03:12:20.738Z,20.30
2018-08-18T03:14:48.801Z,20.20
2018-08-18T03:17:16.940Z,20.20
2018-08-18T03:19:46.278Z,20.20
2018-08-18T03:22:14.662Z,20.10
2018-08-18T03:24:43.118Z,20.10
2018-08-18T03:27:11.511Z,20.10
2018-08-18T03:29:56.449Z,20.00
2018-08-18T03:32:24.859Z,20.10
2018-08-18T03:34:53.674Z,20.20
2018-08-18T03:37:30.311Z,20.20
2018-08-18T03:39:58.746Z,20.10
2018-08-18T03:42:37.127Z,20.00
2018-08-18T03:45:06.644Z,20.10
2018-08-18T03:47:35.107Z,20.00
2018-08-18T03:50:04.209Z,19.90
2018-08-18T03:52:32.353Z,19.90
2018-08-18T03:55:01.357Z,19.90
2018-08-18T03:57:45.399Z,19.90
2018-08-18T04:00:14.758Z,20.00
2018-08-18T04:02:43.512Z,20.00
2018-08-18T04:05:12.326Z,20.10
2018-08-18T04:07:48.353Z,20.10
2018-08-18T04:10:17.863Z,20.10
2018-08-18T04:12:46.649Z,20.10
2018-08-18T04:15:14.751Z,20.10
2018-08-18T04:17:43.470Z,20.10
2018-08-18T04:20:12.282Z,20.00
2018-08-18T04:22:40.650Z,20.10
2018-08-18T04:25:09.125Z,20.00
2018-08-18T04:27:40.179Z,20.10
2018-08-18T04:30:15.362Z,20.00
2018-08-18T04:32:56.174Z,20.00
2018-08-18T04:35:25.896Z,19.90
2018-08-18T04:37:55.145Z,19.90
2018-08-18T04:40:24.109Z,19.90
2018-08-18T04:42:52.531Z,20.00
2018-08-18T04:45:21.911Z,20.10
2018-08-18T04:47:50.029Z,20.10
2018-08-18T04:50:18.489Z,20.20
2018-08-18T04:52:47.428Z,20.20
2018-08-18T04:55:16.270Z,20.30
2018-08-18T04:57:44.738Z,20.20
2018-08-18T05:00:13.742Z,20.30
2018-08-18T05:02:47.630Z,20.20
2018-08-18T05:05:16.627Z,20.20
2018-08-18T05:07:50.353Z,20.20
2018-08-18T05:10:21.043Z,20.10
2018-08-18T05:12:49.493Z,20.10
2018-08-18T05:15:18.847Z,20.10
2018-08-18T05:17:48.619Z,20.20
2018-08-18T05:20:18.722Z,20.20
2018-08-18T05:22:46.878Z,20.30
2018-08-18T05:25:16.265Z,20.40
2018-08-18T05:27:44.682Z,20.30
2018-08-18T05:30:13.074Z,20.50
2018-08-18T05:32:41.458Z,20.60
2018-08-18T05:35:09.917Z,20.80
2018-08-18T05:37:38.709Z,20.90
2018-08-18T05:40:07.320Z,21.20
2018-08-18T05:42:35.755Z,21.20
2018-08-18T05:45:38.182Z,21.10
2018-08-18T05:48:06.218Z,21.00
2018-08-18T05:50:34.675Z,20.70
2018-08-18T05:53:23.263Z,20.50
2018-08-18T05:55:51.398Z,20.60
2018-08-18T05:58:19.461Z,20.60
2018-08-18T06:00:49.338Z,20.60
2018-08-18T06:03:19.088Z,20.30
2018-08-18T06:05:47.239Z,20.40
2018-08-18T06:08:15.867Z,20.70
2018-08-18T06:10:44.295Z,21.30
2018-08-18T06:13:18.570Z,21.70
2018-08-18T06:16:11.881Z,21.70
2018-08-18T06:18:41.274Z,21.80
2018-08-18T06:21:09.719Z,22.00
2018-08-18T06:23:38.953Z,22.20
2018-08-18T06:26:07.827Z,22.20
2018-08-18T06:28:35.945Z,22.10
2018-08-18T06:31:04.346Z,22.00
2018-08-18T06:33:32.563Z,22.20
2018-08-18T06:36:01.506Z,22.00
2018-08-18T06:38:29.726Z,21.90
2018-08-18T06:40:59.293Z,21.90
2018-08-18T06:43:28.465Z,22.00
2018-08-18T06:45:56.943Z,22.00
2018-08-18T06:48:25.047Z,22.20
2018-08-18T06:50:53.517Z,22.40
2018-08-18T06:53:22.304Z,22.60
2018-08-18T06:55:50.780Z,22.80
2018-08-18T06:58:18.949Z,23.30
2018-08-18T07:00:47.365Z,23.70
2018-08-18T07:03:27.138Z,24.00
2018-08-18T07:05:55.958Z,24.30
2018-08-18T07:08:24.628Z,24.40
2018-08-18T07:10:53.414Z,24.50
2018-08-18T07:13:22.580Z,24.50
2018-08-18T07:15:50.749Z,24.70
2018-08-18T07:18:19.200Z,24.90
2018-08-18T07:20:47.301Z,25.10
2018-08-18T07:23:15.750Z,25.50
2018-08-18T07:25:50.373Z,25.70
2018-08-18T07:28:19.827Z,25.70
2018-08-18T07:30:48.196Z,26.00
2018-08-18T07:33:16.646Z,26.10
2018-08-18T07:35:44.797Z,26.00
2018-08-18T07:38:13.577Z,26.40
2018-08-18T07:40:44.529Z,26.80
2018-08-18T07:43:14.731Z,26.90
2018-08-18T07:45:43.899Z,26.80
2018-08-18T07:48:11.989Z,26.90
2018-08-18T07:50:40.230Z,26.80
2018-08-18T07:53:08.758Z,26.40
2018-08-18T07:55:37.096Z,26.20
2018-08-18T07:58:12.666Z,26.30
2018-08-18T08:00:41.353Z,26.60
2018-08-18T08:03:10.748Z,26.30
2018-08-18T08:05:39.205Z,26.10
2018-08-18T08:08:07.971Z,25.90
2018-08-18T08:10:36.472Z,25.80
2018-08-18T08:13:04.870Z,25.50
2018-08-18T08:15:33.037Z,25.10
2018-08-18T08:18:01.114Z,24.70
2018-08-18T08:20:29.593Z,24.60
2018-08-18T08:22:57.885Z,24.80
2018-08-18T08:25:25.967Z,24.50
2018-08-18T08:27:55.196Z,24.50
2018-08-18T08:30:24.580Z,24.70
2018-08-18T08:32:52.665Z,24.70
2018-08-18T08:35:20.871Z,25.00
2018-08-18T08:37:51.356Z,25.10
2018-08-18T08:40:20.533Z,25.30
2018-08-18T08:42:48.974Z,25.60
2018-08-18T08:45:18.798Z,25.70
2018-08-18T08:47:48.251Z,25.80
2018-08-18T08:50:18.530Z,25.90
2018-08-18T08:52:48.352Z,25.90
2018-08-18T08:55:17.606Z,26.00
2018-08-18T08:57:46.112Z,25.80
2018-08-18T09:00:14.627Z,25.80
2018-08-18T09:02:43.392Z,26.00
2018-08-18T09:05:11.483Z,25.90
2018-08-18T09:07:40.509Z,25.40
2018-08-18T09:10:09.835Z,25.20
2018-08-18T09:12:38.966Z,25.30
2018-08-18T09:15:08.426Z,25.60
2018-08-18T09:17:36.618Z,25.70
2018-08-18T09:20:06.206Z,25.80
2018-08-18T09:22:44.938Z,25.90
2018-08-18T09:25:16.039Z,26.00
2018-08-18T09:27:49.360Z,26.30
2018-08-18T09:30:17.728Z,26.90
2018-08-18T09:32:46.192Z,27.50
2018-08-18T09:35:14.675Z,27.40
2018-08-18T09:37:47.024Z,27.20
2018-08-18T09:40:15.450Z,26.50
2018-08-18T09:42:44.230Z,25.80
2018-08-18T09:45:12.359Z,25.60
2018-08-18T09:47:40.825Z,25.60
2018-08-18T09:50:08.968Z,25.40
2018-08-18T09:52:37.462Z,25.50
2018-08-18T09:55:05.950Z,25.50
2018-08-18T09:57:34.753Z,25.60
2018-08-18T10:00:03.076Z,25.90
2018-08-18T10:02:31.331Z,26.00
2018-08-18T10:04:59.464Z,26.20
2018-08-18T10:07:28.236Z,26.60
2018-08-18T10:09:56.662Z,27.00
2018-08-18T10:12:25.100Z,27.70
2018-08-18T10:14:53.931Z,27.90
2018-08-18T10:17:22.332Z,28.00
2018-08-18T10:19:50.733Z,27.60
2018-08-18T10:22:19.556Z,27.80
2018-08-18T10:24:47.975Z,27.60
2018-08-18T10:27:17.659Z,28.20
2018-08-18T10:29:46.713Z,28.60
2018-08-18T10:32:15.124Z,29.20
2018-08-18T10:34:43.566Z,29.10
2018-08-18T10:37:11.766Z,28.40
2018-08-18T10:39:40.235Z,27.90
2018-08-18T10:42:12.262Z,27.90
2018-08-18T10:44:43.689Z,28.90
2018-08-18T10:47:15.361Z,30.60
2018-08-18T10:49:54.850Z,31.80
2018-08-18T10:52:35.497Z,32.80
2018-08-18T10:55:06.260Z,33.40
2018-08-18T10:57:46.927Z,32.80
2018-08-18T11:00:16.757Z,32.40
2018-08-18T11:02:48.485Z,32.60
2018-08-18T11:05:17.148Z,31.40
2018-08-18T11:07:54.705Z,30.90
2018-08-18T11:10:23.793Z,30.30
2018-08-18T11:12:51.883Z,29.80
2018-08-18T11:15:20.267Z,28.80
2018-08-18T11:17:48.708Z,28.30
2018-08-18T11:20:18.877Z,27.90
2018-08-18T11:22:54.229Z,27.80
2018-08-18T11:25:27.444Z,27.80
2018-08-18T11:27:56.261Z,27.60
2018-08-18T11:30:24.618Z,27.40
2018-08-18T11:32:54.344Z,27.30
2018-08-18T11:35:22.806Z,28.20
2018-08-18T11:38:02.706Z,29.40
2018-08-18T11:40:30.919Z,30.80
2018-08-18T11:43:02.991Z,31.60
2018-08-18T11:45:32.855Z,32.70
2018-08-18T11:48:18.046Z,34.00
2018-08-18T11:50:46.954Z,34.70
2018-08-18T11:53:15.021Z,35.20
2018-08-18T11:55:43.170Z,35.60
2018-08-18T11:58:13.449Z,34.90
2018-08-18T12:00:45.199Z,34.80
2018-08-18T12:03:14.646Z,34.70
2018-08-18T12:05:46.659Z,34.70
2018-08-18T12:08:16.053Z,34.70
2018-08-18T12:10:44.574Z,35.10
2018-08-18T12:13:13.248Z,33.80
2018-08-18T12:15:55.323Z,33.10
2018-08-18T12:18:25.293Z,33.30
2018-08-18T12:20:54.435Z,33.70
2018-08-18T12:23:22.850Z,33.80
2018-08-18T12:25:59.735Z,34.50
2018-08-18T12:29:01.934Z,35.40
2018-08-18T12:31:30.376Z,35.90
2018-08-18T12:33:58.815Z,35.50
2018-08-18T12:36:27.270Z,34.90
2018-08-18T12:38:57.433Z,35.20
2018-08-18T12:41:26.558Z,35.70
2018-08-18T12:43:56.092Z,37.10
2018-08-18T12:46:28.418Z,37.10
2018-08-18T12:48:56.885Z,37.60
2018-08-18T12:51:25.494Z,37.60
2018-08-18T12:53:55.442Z,35.40
2018-08-18T12:56:26.619Z,35.40
2018-08-18T12:58:54.785Z,35.10
2018-08-18T13:01:37.451Z,35.80
2018-08-18T13:04:07.903Z,36.10
2018-08-18T13:06:40.894Z,36.50
2018-08-18T13:09:11.049Z,35.20
2018-08-18T13:11:39.340Z,33.70
2018-08-18T13:14:07.547Z,31.80
2018-08-18T13:16:36.604Z,30.80
2018-08-18T13:19:05.103Z,29.80
2018-08-18T13:21:33.242Z,29.90
2018-08-18T13:24:02.904Z,31.50
2018-08-18T13:26:31.859Z,32.30
2018-08-18T13:29:00.104Z,34.10
2018-08-18T13:31:33.445Z,34.50
2018-08-18T13:34:01.876Z,34.40
2018-08-18T13:36:29.972Z,35.70
2018-08-18T13:38:58.420Z,35.60
2018-08-18T13:41:26.901Z,35.00
2018-08-18T13:43:55.701Z,34.40
2018-08-18T13:46:35.280Z,34.30
2018-08-18T13:49:04.421Z,34.70
2018-08-18T13:51:32.899Z,35.00
2018-08-18T13:54:02.671Z,35.80
2018-08-18T13:56:31.261Z,35.80
2018-08-18T13:58:59.415Z,35.20
2018-08-18T14:01:33.336Z,34.40
2018-08-18T14:04:01.420Z,33.10
2018-08-18T14:06:30.366Z,32.50
2018-08-18T14:09:01.041Z,32.30
2018-08-18T14:11:30.033Z,32.10
2018-08-18T14:13:59.791Z,31.20
2018-08-18T14:16:29.335Z,30.50
2018-08-18T14:18:57.599Z,30.60
2018-08-18T14:21:25.765Z,30.10
2018-08-18T14:23:53.805Z,29.80
2018-08-18T14:26:22.037Z,29.60
2018-08-18T14:28:50.461Z,29.20
2018-08-18T14:31:18.993Z,28.70
2018-08-18T14:33:47.840Z,28.10
2018-08-18T14:36:16.699Z,27.90
2018-08-18T14:38:46.162Z,27.80
2018-08-18T14:41:18.756Z,28.70
2018-08-18T14:43:47.607Z,29.60
2018-08-18T14:46:15.835Z,30.10
2018-08-18T14:48:44.766Z,30.30
2018-08-18T14:51:13.234Z,29.90
2018-08-18T14:53:42.877Z,29.80
2018-08-18T14:56:11.671Z,29.70
2018-08-18T14:58:43.384Z,29.50
2018-08-18T15:01:13.420Z,29.30
2018-08-18T15:03:42.358Z,29.20
2018-08-18T15:06:11.335Z,29.10
2018-08-18T15:08:40.193Z,29.00
2018-08-18T15:11:08.825Z,29.00
2018-08-18T15:13:37.603Z,28.80
2018-08-18T15:16:05.862Z,28.70
2018-08-18T15:18:34.644Z,28.70
2018-08-18T15:21:03.637Z,28.90
2018-08-18T15:23:32.230Z,28.80
2018-08-18T15:26:00.950Z,28.50
2018-08-18T15:28:29.352Z,28.30
2018-08-18T15:30:57.488Z,28.10
2018-08-18T15:33:27.236Z,27.90
2018-08-18T15:35:55.772Z,28.20
2018-08-18T15:38:49.605Z,28.30
2018-08-18T15:41:18.363Z,28.50
2018-08-18T15:43:47.203Z,28.10
2018-08-18T15:46:16.014Z,28.10
2018-08-18T15:48:44.850Z,28.00
2018-08-18T15:51:13.638Z,27.90
2018-08-18T15:53:51.605Z,27.90
2018-08-18T15:56:21.015Z,27.80
2018-08-18T15:58:50.221Z,27.80
2018-08-18T16:01:20.639Z,27.70
2018-08-18T16:03:49.616Z,27.50
2018-08-18T16:06:17.707Z,27.50
2018-08-18T16:08:46.203Z,27.50
2018-08-18T16:11:15.309Z,27.30
2018-08-18T16:13:43.802Z,27.30
2018-08-18T16:16:12.057Z,27.20
2018-08-18T16:18:40.896Z,27.20
2018-08-18T16:21:17.463Z,27.20
2018-08-18T16:23:46.000Z,27.30
2018-08-18T16:26:14.658Z,27.30
2018-08-18T16:28:43.180Z,27.30
2018-08-18T16:31:11.640Z,27.10
2018-08-18T16:33:39.941Z,27.00
2018-08-18T16:36:08.213Z,26.80
2018-08-18T16:38:36.665Z,26.80
2018-08-18T16:41:04.733Z,26.90
2018-08-18T16:43:34.264Z,27.00
2018-08-18T16:46:19.120Z,27.00
2018-08-18T16:48:48.450Z,27.00
2018-08-18T16:51:17.193Z,26.90
2018-08-18T16:53:45.496Z,26.90
2018-08-18T16:56:23.695Z,26.80
2018-08-18T16:58:53.596Z,26.70
2018-08-18T17:01:22.327Z,26.80
2018-08-18T17:03:51.127Z,26.70
2018-08-18T17:06:19.989Z,26.60
2018-08-18T17:08:48.443Z,26.60
2018-08-18T17:11:16.952Z,26.60
2018-08-18T17:13:45.729Z,26.50
2018-08-18T17:16:14.486Z,26.50
2018-08-18T17:18:42.750Z,26.50
2018-08-18T17:21:12.769Z,26.40
2018-08-18T17:23:41.791Z,26.40
2018-08-18T17:26:10.349Z,26.40
2018-08-18T17:28:39.169Z,26.40
2018-08-18T17:31:07.631Z,26.40
2018-08-18T17:33:36.055Z,26.40
2018-08-18T17:36:04.473Z,26.30
2018-08-18T17:38:32.950Z,26.20
2018-08-18T17:41:01.431Z,26.20
2018-08-18T17:43:29.807Z,26.10
2018-08-18T17:45:59.109Z,26.10
2018-08-18T17:48:28.922Z,26.10
2018-08-18T17:50:57.282Z,26.00
2018-08-18T17:53:25.533Z,25.90
2018-08-18T17:55:59.557Z,25.90
2018-08-18T17:58:27.897Z,25.80
2018-08-18T18:00:56.724Z,25.80
2018-08-18T18:03:24.886Z,25.70
2018-08-18T18:05:55.204Z,25.60
2018-08-18T18:08:23.378Z,25.50
2018-08-18T18:10:51.855Z,25.30
2018-08-18T18:13:27.054Z,25.30
2018-08-18T18:15:55.879Z,25.30
2018-08-18T18:18:25.754Z,25.20
2018-08-18T18:20:55.330Z,25.10
2018-08-18T18:23:24.115Z,25.10
2018-08-18T18:25:53.028Z,25.00
2018-08-18T18:28:21.133Z,25.00
2018-08-18T18:30:52.055Z,24.90
2018-08-18T18:33:20.679Z,24.80
2018-08-18T18:35:49.244Z,24.70
2018-08-18T18:38:17.946Z,24.50
2018-08-18T18:40:46.361Z,24.40
2018-08-18T18:43:14.828Z,24.30
2018-08-18T18:45:43.074Z,24.20
2018-08-18T18:48:13.258Z,24.10
2018-08-18T18:50:44.657Z,24.00
2018-08-18T18:53:13.199Z,23.90
2018-08-18T18:55:51.958Z,23.80
2018-08-18T18:58:21.095Z,23.80
2018-08-18T19:00:56.738Z,23.70
2018-08-18T19:03:25.318Z,23.60
2018-08-18T19:05:53.969Z,23.60
2018-08-18T19:08:22.549Z,23.60
2018-08-18T19:10:50.760Z,23.50
2018-08-18T19:13:19.541Z,23.40
2018-08-18T19:15:48.702Z,23.30
2018-08-18T19:18:17.177Z,23.30
2018-08-18T19:20:45.923Z,23.30
2018-08-18T19:23:15.987Z,23.20
2018-08-18T19:25:47.019Z,23.20
2018-08-18T19:28:17.332Z,23.10
2018-08-18T19:30:45.899Z,23.00
2018-08-18T19:33:15.396Z,22.90
2018-08-18T19:35:46.424Z,22.80
2018-08-18T19:38:15.491Z,22.80
2018-08-18T19:40:45.461Z,22.80
2018-08-18T19:43:16.034Z,22.80
2018-08-18T19:45:44.632Z,22.60
2018-08-18T19:48:15.496Z,22.70
2018-08-18T19:50:51.291Z,22.60
2018-08-18T19:53:24.960Z,22.60
2018-08-18T19:55:55.672Z,22.40
2018-08-18T19:58:25.731Z,22.40
2018-08-18T20:00:54.515Z,22.30
2018-08-18T20:03:23.449Z,22.30
2018-08-18T20:05:51.863Z,22.30
2018-08-18T20:08:22.168Z,22.20
2018-08-18T20:10:55.350Z,22.20
2018-08-18T20:13:24.993Z,22.20
2018-08-18T20:15:55.846Z,22.00
2018-08-18T20:18:24.052Z,21.90
2018-08-18T20:20:52.576Z,21.90
2018-08-18T20:23:21.814Z,21.90
2018-08-18T20:25:51.136Z,21.90
2018-08-18T20:28:19.299Z,21.90
2018-08-18T20:30:47.890Z,21.90
2018-08-18T20:33:16.446Z,21.90
2018-08-18T20:35:45.107Z,21.90
2018-08-18T20:38:13.976Z,21.80
2018-08-18T20:40:42.502Z,21.80
2018-08-18T20:43:10.573Z,21.70
2018-08-18T20:45:44.741Z,21.70
2018-08-18T20:48:16.960Z,21.50
2018-08-18T20:50:45.400Z,21.40
2018-08-18T20:53:14.670Z,21.40
2018-08-18T20:55:45.845Z,21.40
2018-08-18T20:58:14.329Z,21.40
2018-08-18T21:00:42.445Z,21.40
2018-08-18T21:03:11.338Z,21.40
2018-08-18T21:05:39.812Z,21.40
2018-08-18T21:08:17.648Z,21.40
2018-08-18T21:10:46.061Z,21.50
2018-08-18T21:13:14.356Z,21.30
2018-08-18T21:15:42.541Z,21.30
2018-08-18T21:18:17.410Z,21.20
2018-08-18T21:20:46.657Z,21.20
2018-08-18T21:23:15.281Z,21.10
2018-08-18T21:25:48.139Z,21.10
2018-08-18T21:28:17.759Z,21.10
2018-08-18T21:30:47.047Z,21.20
2018-08-18T21:33:15.550Z,21.10
2018-08-18T21:35:43.761Z,21.20
2018-08-18T21:38:12.112Z,21.30
2018-08-18T21:40:40.739Z,21.20
2018-08-18T21:43:20.412Z,21.20
2018-08-18T21:45:48.810Z,21.00
2018-08-18T21:48:17.795Z,21.00
2018-08-18T21:50:46.577Z,20.90
2018-08-18T21:53:16.056Z,20.90
2018-08-18T21:55:44.995Z,20.80
2018-08-18T21:58:13.695Z,20.70
2018-08-18T22:00:46.687Z,20.70
2018-08-18T22:03:15.732Z,20.70
2018-08-18T22:05:44.602Z,20.60
2018-08-18T22:08:12.907Z,20.60
2018-08-18T22:10:46.025Z,20.50
2018-08-18T22:13:15.100Z,20.50
2018-08-18T22:15:44.140Z,20.50
2018-08-18T22:18:13.014Z,20.40
2018-08-18T22:20:41.730Z,20.40
2018-08-18T22:23:09.985Z,20.50
2018-08-18T22:25:38.540Z,20.50
2018-08-18T22:28:07.340Z,20.40
2018-08-18T22:30:36.035Z,20.40
2018-08-18T22:33:04.528Z,20.40
2018-08-18T22:35:33.627Z,20.40
2018-08-18T22:38:02.197Z,20.30
2018-08-18T22:40:30.653Z,20.30
2018-08-18T22:42:59.516Z,20.30
2018-08-18T22:45:30.173Z,20.30
2018-08-18T22:47:58.344Z,20.30
2018-08-18T22:50:26.678Z,20.10
2018-08-18T22:52:55.142Z,20.00
2018-08-18T22:55:23.609Z,19.90
2018-08-18T22:57:57.807Z,20.00
2018-08-18T23:00:25.881Z,20.00
2018-08-18T23:02:54.388Z,20.00
2018-08-18T23:05:22.849Z,20.10
2018-08-18T23:07:54.116Z,20.10
2018-08-18T23:10:23.234Z,20.10
2018-08-18T23:12:52.023Z,20.10
2018-08-18T23:15:21.042Z,20.10
2018-08-18T23:17:49.336Z,20.10
2018-08-18T23:20:17.891Z,20.10
2018-08-18T23:22:53.609Z,20.10
2018-08-18T23:25:23.692Z,20.10
2018-08-18T23:27:53.144Z,20.00
2018-08-18T23:30:24.226Z,20.00
2018-08-18T23:32:53.072Z,20.00
2018-08-18T23:35:24.043Z,19.90
2018-08-18T23:37:53.049Z,19.90
2018-08-18T23:40:21.393Z,19.90
2018-08-18T23:42:50.177Z,19.90
2018-08-18T23:45:18.305Z,19.80
2018-08-18T23:47:54.909Z,19.80
2018-08-18T23:50:24.322Z,19.70
2018-08-18T23:52:58.517Z,19.70
2018-08-18T23:55:28.023Z,19.70
2018-08-18T23:57:56.468Z,19.60
